Time;durP1;ratioP1;P1;durP2;ratioP2;P2;SDS_P1;SDS_P2;PMS_P1;PMS_P2;Temp;Humidity;BMP_temperature;BMP_pressure;BME280_temperature;BME280_humidity;BME280_pressure;Samples;Min_cycle;Max_cycle;Signal;HPM_P1;HPM_P2
2022/11/14 00:02:08;;;;;;;649.40;604.03;;;1.80;41.60;;;;;;5071750;28;20188;-71
2022/11/14 00:04:34;;;;;;;517.83;483.20;;;1.70;40.50;;;;;;5071985;28;20170;-71
2022/11/14 00:06:59;;;;;;;282.53;263.23;;;1.60;41.60;;;;;;5071773;28;20194;-71
2022/11/14 00:09:26;;;;;;;430.73;405.27;;;1.50;41.20;;;;;;5074218;28;20255;-71
2022/11/14 00:11:53;;;;;;;440.13;413.25;;;1.50;42.40;;;;;;5070305;28;20243;-71
2022/11/14 00:14:18;;;;;;;688.92;640.72;;;1.60;42.60;;;;;;5071084;28;20522;-71
2022/11/14 00:16:44;;;;;;;578.27;539.97;;;1.60;42.00;;;;;;5071830;28;20201;-71
2022/11/14 00:19:10;;;;;;;610.87;570.77;;;1.50;41.20;;;;;;5070446;28;20210;-71
2022/11/14 00:21:35;;;;;;;647.13;603.97;;;1.50;42.50;;;;;;5071759;28;20614;-71
2022/11/14 00:24:01;;;;;;;314.23;294.57;;;1.50;42.60;;;;;;5070213;28;20249;-71
2022/11/14 00:26:26;;;;;;;542.10;504.00;;;1.40;41.80;;;;;;5071441;28;20224;-71
2022/11/14 00:28:53;;;;;;;360.47;337.00;;;1.40;42.10;;;;;;5071597;28;20615;-71
2022/11/14 00:31:19;;;;;;;617.83;575.60;;;1.40;43.20;;;;;;5071523;28;20188;-71
2022/11/14 00:33:44;;;;;;;322.53;301.60;;;1.40;43.20;;;;;;5071283;28;20249;-71
2022/11/14 00:36:10;;;;;;;265.63;245.43;;;1.40;43.40;;;;;;5087899;28;20205;-71
2022/11/14 00:38:35;;;;;;;134.43;121.17;;;1.40;42.90;;;;;;5091606;28;20295;-71
2022/11/14 00:41:01;;;;;;;423.27;396.60;;;1.50;44.00;;;;;;5090404;28;20175;-71
2022/11/14 00:43:26;;;;;;;497.17;466.93;;;1.50;42.90;;;;;;5091357;28;20586;-71
2022/11/14 00:45:52;;;;;;;233.20;214.90;;;1.50;43.20;;;;;;5091297;28;20574;-71
2022/11/14 00:48:17;;;;;;;490.93;461.07;;;1.50;42.10;;;;;;5090336;28;20256;-71
2022/11/14 00:50:43;;;;;;;460.77;432.20;;;1.40;43.30;;;;;;5090227;28;20212;-71
2022/11/14 00:53:09;;;;;;;565.33;529.30;;;1.50;42.90;;;;;;5091383;28;20175;-71
2022/11/14 00:55:34;;;;;;;587.77;544.17;;;1.50;42.80;;;;;;5091214;28;20925;-71
2022/11/14 00:58:00;;;;;;;485.57;457.00;;;1.40;42.30;;;;;;5085052;28;20583;-71
2022/11/14 01:00:25;;;;;;;408.77;381.83;;;1.40;42.90;;;;;;5071693;28;20186;-71
2022/11/14 01:02:55;;;;;;;435.87;408.87;;;1.30;42.50;;;;;;5071158;28;20170;-71
2022/11/14 01:05:22;;;;;;;589.90;551.25;;;1.30;42.20;;;;;;5071158;28;20493;-72
2022/11/14 01:07:48;;;;;;;537.40;502.27;;;1.30;43.00;;;;;;5071354;28;20170;-70
2022/11/14 01:10:14;;;;;;;513.45;480.25;;;1.30;43.10;;;;;;5071272;28;20257;-71
2022/11/14 01:12:40;;;;;;;528.45;493.33;;;1.30;42.80;;;;;;5069540;28;20270;-71
2022/11/14 01:15:06;;;;;;;369.00;346.10;;;1.30;42.80;;;;;;5070039;28;20266;-71
2022/11/14 01:17:32;;;;;;;292.90;270.17;;;1.20;42.60;;;;;;5069792;28;20545;-71
2022/11/14 01:19:57;;;;;;;421.27;395.47;;;1.20;43.60;;;;;;5071081;28;20216;-71
2022/11/14 01:22:23;;;;;;;367.43;340.40;;;1.20;42.90;;;;;;5079492;28;20181;-71
2022/11/14 01:24:48;;;;;;;269.97;250.40;;;1.20;43.90;;;;;;5093325;28;20172;-71
2022/11/14 01:27:14;;;;;;;297.10;277.23;;;1.20;43.50;;;;;;5094892;28;20211;-72
2022/11/14 01:29:39;;;;;;;383.67;360.20;;;1.20;43.90;;;;;;5095082;28;20534;-70
2022/11/14 01:32:05;;;;;;;297.33;277.20;;;1.20;43.90;;;;;;5091904;28;20231;-71
2022/11/14 01:34:31;;;;;;;380.57;356.67;;;1.20;43.10;;;;;;5073393;28;20185;-71
2022/11/14 01:36:56;;;;;;;327.37;306.27;;;1.20;44.40;;;;;;5073247;28;20233;-71
2022/11/14 01:39:22;;;;;;;601.73;560.50;;;1.20;43.00;;;;;;5074617;28;20544;-71
2022/11/14 01:41:47;;;;;;;324.87;299.60;;;1.20;43.20;;;;;;5074295;28;20177;-71
2022/11/14 01:44:37;;;;;;;447.83;415.73;;;1.10;42.80;;;;;;5074461;28;20518;-71
2022/11/14 01:47:03;;;;;;;333.77;311.88;;;1.10;42.90;;;;;;5073152;28;20194;-71
2022/11/14 01:49:41;;;;;;;276.13;254.93;;;1.10;44.10;;;;;;5074478;28;20253;-71
2022/11/14 01:52:18;;;;;;;301.23;280.48;;;1.20;43.50;;;;;;5072995;28;20182;-71
2022/11/14 01:54:53;;;;;;;367.05;343.40;;;1.20;42.80;;;;;;5074623;28;20238;-71
2022/11/14 01:57:27;;;;;;;534.58;497.63;;;1.10;43.70;;;;;;5074407;28;20752;-71
2022/11/14 01:59:56;;;;;;;381.77;356.55;;;1.10;43.40;;;;;;5087445;28;20551;-71
2022/11/14 02:02:24;;;;;;;353.80;327.85;;;1.00;42.20;;;;;;5085687;28;20174;-71
2022/11/14 02:05:06;;;;;;;379.13;355.33;;;1.10;43.40;;;;;;5074159;28;20547;-71
2022/11/14 02:07:35;;;;;;;331.92;310.38;;;1.10;43.70;;;;;;5075272;28;20214;-71
2022/11/14 02:10:06;;;;;;;426.75;399.27;;;1.10;42.80;;;;;;5072828;28;20552;-70
2022/11/14 02:12:32;;;;;;;329.25;307.83;;;1.00;42.80;;;;;;5080593;28;20648;-70
2022/11/14 02:14:58;;;;;;;352.57;329.63;;;1.00;42.70;;;;;;5094289;28;20184;-70
2022/11/14 02:17:25;;;;;;;431.25;405.58;;;1.00;42.70;;;;;;5075590;28;20509;-69
2022/11/14 02:19:53;;;;;;;588.65;546.47;;;1.00;42.60;;;;;;5068681;28;20212;-69
2022/11/14 02:22:19;;;;;;;563.55;525.65;;;1.00;41.70;;;;;;5053137;28;20629;-70
2022/11/14 02:24:45;;;;;;;352.43;326.60;;;0.90;41.50;;;;;;5065043;28;20257;-69
2022/11/14 02:27:12;;;;;;;373.38;350.00;;;1.00;42.90;;;;;;5073350;28;20223;-69
2022/11/14 02:29:38;;;;;;;238.48;220.35;;;0.90;41.80;;;;;;5092697;28;20184;-70
2022/11/14 02:32:04;;;;;;;418.50;392.70;;;1.00;43.30;;;;;;5094130;28;20523;-70
2022/11/14 02:34:29;;;;;;;525.55;493.95;;;1.10;42.80;;;;;;5093454;28;20200;-70
2022/11/14 02:36:55;;;;;;;351.00;329.10;;;1.10;42.40;;;;;;5093038;28;20566;-69
2022/11/14 02:39:21;;;;;;;390.53;361.77;;;1.10;42.60;;;;;;5066191;28;20674;-69
2022/11/14 02:41:49;;;;;;;597.45;556.47;;;1.10;41.80;;;;;;5053232;28;20416;-70
2022/11/14 02:44:15;;;;;;;384.58;359.52;;;1.00;41.80;;;;;;5061953;28;20251;-69
2022/11/14 02:46:40;;;;;;;190.73;174.13;;;1.00;42.20;;;;;;5073422;28;20193;-69
2022/11/14 02:49:06;;;;;;;140.87;127.00;;;1.00;42.50;;;;;;5073314;28;20256;-70
2022/11/14 02:51:31;;;;;;;316.67;294.73;;;1.10;42.10;;;;;;5073360;28;20227;-70
2022/11/14 02:53:57;;;;;;;355.87;332.37;;;1.00;43.30;;;;;;5073046;28;20185;-70
2022/11/14 02:56:22;;;;;;;462.00;427.00;;;1.00;43.00;;;;;;5073230;28;20271;-70
2022/11/14 02:58:48;;;;;;;190.07;174.30;;;1.00;42.90;;;;;;5086245;28;20273;-71
2022/11/14 03:01:13;;;;;;;330.17;309.03;;;0.90;42.90;;;;;;5092176;28;20704;-70
2022/11/14 03:03:39;;;;;;;535.57;499.00;;;0.90;42.40;;;;;;5091781;28;20185;-70
2022/11/14 03:06:05;;;;;;;282.77;261.90;;;1.00;43.70;;;;;;5092685;28;20220;-70
2022/11/14 03:08:31;;;;;;;301.98;281.27;;;1.00;44.20;;;;;;5080131;28;20186;-69
2022/11/14 03:11:06;;;;;;;329.53;308.03;;;1.00;43.90;;;;;;5053120;28;20253;-69
2022/11/14 03:13:32;;;;;;;448.70;420.70;;;1.00;44.10;;;;;;5051576;28;20177;-70
2022/11/14 03:16:04;;;;;;;321.57;299.43;;;1.00;43.20;;;;;;5053123;28;20275;-69
2022/11/14 03:18:29;;;;;;;243.60;225.18;;;1.00;43.40;;;;;;5052804;28;20631;-69
2022/11/14 03:20:55;;;;;;;518.00;480.63;;;1.00;44.20;;;;;;5065442;28;20205;-70
2022/11/14 03:23:20;;;;;;;280.90;262.20;;;1.10;44.90;;;;;;5072321;28;20217;-69
2022/11/14 03:25:46;;;;;;;376.60;354.07;;;1.10;45.00;;;;;;5071131;28;20229;-70
2022/11/14 03:28:11;;;;;;;358.73;336.47;;;1.10;43.70;;;;;;5072622;28;20209;-69
2022/11/14 03:30:37;;;;;;;292.30;272.67;;;1.20;45.00;;;;;;5071102;28;20691;-70
2022/11/14 03:33:02;;;;;;;317.67;297.40;;;1.20;45.00;;;;;;5071176;28;20265;-69
2022/11/14 03:35:28;;;;;;;209.97;193.20;;;1.30;45.10;;;;;;5086102;28;20201;-69
2022/11/14 03:37:53;;;;;;;248.40;230.77;;;1.40;45.20;;;;;;5092668;28;20173;-70
2022/11/14 03:40:19;;;;;;;273.30;252.53;;;1.60;45.40;;;;;;5092371;28;20185;-70
2022/11/14 03:42:44;;;;;;;199.93;184.47;;;1.90;48.10;;;;;;5092118;28;20544;-69
2022/11/14 03:45:11;;;;;;;311.70;289.17;;;2.20;50.40;;;;;;5092319;28;20186;-70
2022/11/14 03:47:36;;;;;;;371.27;345.70;;;2.70;51.20;;;;;;5092470;28;20168;-70
2022/11/14 03:50:02;;;;;;;327.43;305.17;;;3.00;52.40;;;;;;5091341;28;20191;-70
2022/11/14 03:52:28;;;;;;;401.83;375.30;;;3.40;52.30;;;;;;5092592;28;20179;-70
2022/11/14 03:54:53;;;;;;;345.70;322.90;;;3.60;51.40;;;;;;5091110;28;20175;-70
2022/11/14 03:57:19;;;;;;;600.63;564.53;;;3.80;50.80;;;;;;5090694;28;20212;-70
2022/11/14 03:59:44;;;;;;;405.70;378.47;;;3.90;50.00;;;;;;5072036;28;20290;-70
2022/11/14 04:02:10;;;;;;;384.30;358.20;;;4.00;49.50;;;;;;5070501;28;20172;-71
2022/11/14 04:04:35;;;;;;;211.40;196.10;;;4.10;47.80;;;;;;5072164;28;20261;-69
2022/11/14 04:07:01;;;;;;;420.67;394.53;;;4.20;47.50;;;;;;5071918;28;20459;-70
2022/11/14 04:09:26;;;;;;;450.50;422.87;;;4.30;47.60;;;;;;5071966;28;20555;-71
2022/11/14 04:11:52;;;;;;;253.03;236.00;;;4.40;45.80;;;;;;5071596;28;20177;-69
2022/11/14 04:14:17;;;;;;;296.37;275.47;;;4.50;44.60;;;;;;5070607;28;20185;-70
2022/11/14 04:16:43;;;;;;;350.80;328.50;;;4.60;44.40;;;;;;5070493;28;20789;-70
2022/11/14 04:19:08;;;;;;;524.73;491.47;;;4.70;44.10;;;;;;5071725;28;20217;-71
2022/11/14 04:21:34;;;;;;;329.63;308.13;;;4.80;44.10;;;;;;5072883;28;20183;-70
2022/11/14 04:23:59;;;;;;;331.07;309.47;;;4.90;43.10;;;;;;5071659;28;20540;-70
2022/11/14 04:26:25;;;;;;;446.97;417.00;;;4.90;42.50;;;;;;5071827;28;20688;-71
2022/11/14 04:28:50;;;;;;;287.20;267.20;;;5.00;41.80;;;;;;5070903;28;20187;-70
2022/11/14 04:31:16;;;;;;;316.93;295.40;;;5.00;41.50;;;;;;5072056;28;20185;-70
2022/11/14 04:33:41;;;;;;;233.70;216.93;;;5.10;41.70;;;;;;5071468;28;20731;-70
2022/11/14 04:36:07;;;;;;;403.37;377.67;;;5.20;40.50;;;;;;5070406;28;20747;-70
2022/11/14 04:38:33;;;;;;;335.47;313.17;;;5.20;40.40;;;;;;5071635;28;20287;-69
2022/11/14 04:40:58;;;;;;;168.97;155.17;;;5.30;39.90;;;;;;5071703;28;20590;-70
2022/11/14 04:43:24;;;;;;;403.00;377.73;;;5.30;38.30;;;;;;5070152;28;20498;-70
2022/11/14 04:45:49;;;;;;;436.87;408.47;;;5.30;38.30;;;;;;5071499;28;20695;-70
2022/11/14 04:48:15;;;;;;;408.77;380.47;;;5.20;38.30;;;;;;5082640;28;20549;-69
2022/11/14 04:50:40;;;;;;;173.83;159.30;;;5.20;38.30;;;;;;5091754;28;20180;-70
2022/11/14 04:53:06;;;;;;;290.23;271.07;;;5.20;38.30;;;;;;5091524;28;20265;-70
2022/11/14 04:55:32;;;;;;;376.90;351.07;;;5.00;35.90;;;;;;5090289;28;20197;-70
2022/11/14 04:57:57;;;;;;;302.83;282.03;;;4.80;35.20;;;;;;5091240;28;20246;-70
2022/11/14 05:00:26;;;;;;;316.73;294.00;;;4.60;34.20;;;;;;5093415;28;20173;-70
2022/11/14 05:02:51;;;;;;;565.23;530.50;;;4.40;32.50;;;;;;5095446;28;20410;-69
2022/11/14 05:05:17;;;;;;;304.07;279.43;;;4.10;33.50;;;;;;5095598;28;20405;-69
2022/11/14 05:07:43;;;;;;;338.67;315.53;;;4.00;35.90;;;;;;5095590;28;20388;-69
2022/11/14 05:10:08;;;;;;;415.60;388.10;;;4.10;39.00;;;;;;5083115;28;20191;-70
2022/11/14 05:12:34;;;;;;;491.10;460.13;;;4.50;42.70;;;;;;5074961;28;20235;-70
2022/11/14 05:15:00;;;;;;;224.23;206.23;;;4.70;42.90;;;;;;5075229;28;20849;-70
2022/11/14 05:17:26;;;;;;;303.37;283.20;;;4.80;42.10;;;;;;5075133;28;20209;-70
2022/11/14 05:19:52;;;;;;;375.87;348.37;;;4.90;42.10;;;;;;5075334;28;20550;-70
2022/11/14 05:22:18;;;;;;;320.90;299.27;;;5.00;41.00;;;;;;5075004;28;20863;-70
2022/11/14 05:24:43;;;;;;;221.57;205.57;;;5.10;40.60;;;;;;5075225;28;20224;-70
2022/11/14 05:27:09;;;;;;;216.33;199.67;;;5.20;40.20;;;;;;5076799;23;20754;-73
2022/11/14 05:29:36;;;;;;;422.37;394.20;;;5.30;40.50;;;;;;5056661;28;20186;-73
2022/11/14 05:32:02;;;;;;;482.60;453.33;;;5.40;39.60;;;;;;5055962;28;20591;-72
2022/11/14 05:34:28;;;;;;;375.53;352.10;;;5.40;38.60;;;;;;5055949;28;20412;-72
2022/11/14 05:36:53;;;;;;;365.43;341.00;;;5.40;37.30;;;;;;5056323;28;20267;-72
2022/11/14 05:39:19;;;;;;;385.27;359.57;;;5.20;35.60;;;;;;5055964;28;20195;-72
2022/11/14 05:41:44;;;;;;;319.07;296.33;;;4.90;33.30;;;;;;5055163;28;20170;-72
2022/11/14 05:44:10;;;;;;;476.97;446.33;;;4.70;33.20;;;;;;5055986;28;20174;-71
2022/11/14 05:46:35;;;;;;;561.43;525.10;;;4.60;34.90;;;;;;5056605;28;20676;-73
2022/11/14 05:49:01;;;;;;;472.50;442.60;;;4.50;35.00;;;;;;5055723;28;20185;-72
2022/11/14 05:51:27;;;;;;;387.47;360.97;;;4.50;35.00;;;;;;5055696;28;20178;-71
2022/11/14 05:53:53;;;;;;;403.13;375.53;;;4.30;32.90;;;;;;5056218;28;20181;-71
2022/11/14 05:56:19;;;;;;;420.05;393.08;;;4.00;32.10;;;;;;5056083;28;20246;-72
2022/11/14 05:58:45;;;;;;;418.23;391.08;;;3.90;32.80;;;;;;5054554;28;20215;-71
2022/11/14 06:01:20;;;;;;;330.07;308.23;;;3.90;32.10;;;;;;5054324;28;20185;-71
2022/11/14 06:03:47;;;;;;;248.40;229.48;;;3.80;32.00;;;;;;5054248;28;20176;-71
2022/11/14 06:06:15;;;;;;;458.55;428.95;;;3.70;31.60;;;;;;5053986;28;20199;-71
2022/11/14 06:08:41;;;;;;;536.10;502.75;;;3.70;31.90;;;;;;5053898;28;20185;-71
2022/11/14 06:11:10;;;;;;;294.77;274.40;;;3.60;33.00;;;;;;5051684;28;20672;-71
2022/11/14 06:13:36;;;;;;;344.40;320.88;;;3.50;32.60;;;;;;5052278;28;20462;-70
2022/11/14 06:16:06;;;;;;;298.30;277.23;;;3.50;32.90;;;;;;5054042;28;20224;-72
2022/11/14 06:18:33;;;;;;;403.23;376.33;;;3.40;32.80;;;;;;5054034;28;20199;-70
2022/11/14 06:21:00;;;;;;;462.35;432.95;;;3.50;32.30;;;;;;5053828;28;20271;-71
2022/11/14 06:23:25;;;;;;;480.52;449.75;;;3.50;31.80;;;;;;5054856;28;20176;-72
2022/11/14 06:25:51;;;;;;;266.27;245.93;;;3.40;32.00;;;;;;5055969;28;20570;-72
2022/11/14 06:28:16;;;;;;;461.73;431.77;;;3.40;32.60;;;;;;5055605;28;20185;-73
2022/11/14 06:30:42;;;;;;;377.37;351.20;;;3.40;33.10;;;;;;5055755;28;20172;-72
2022/11/14 06:33:08;;;;;;;445.90;415.17;;;3.50;32.90;;;;;;5055154;28;20273;-72
2022/11/14 06:35:34;;;;;;;522.87;490.43;;;3.60;32.60;;;;;;5055860;28;20177;-72
2022/11/14 06:37:59;;;;;;;371.05;347.00;;;3.50;33.20;;;;;;5054639;28;20195;-70
2022/11/14 06:40:25;;;;;;;519.97;486.03;;;3.50;33.70;;;;;;5056297;28;20178;-72
2022/11/14 06:42:53;;;;;;;515.93;481.67;;;3.60;32.40;;;;;;5056226;28;20178;-74
2022/11/14 06:45:19;;;;;;;518.58;486.00;;;3.70;32.80;;;;;;5056152;28;20181;-74
2022/11/14 06:47:44;;;;;;;561.80;523.70;;;3.80;32.90;;;;;;5055733;28;20207;-73
2022/11/14 06:50:10;;;;;;;376.13;350.53;;;3.80;32.80;;;;;;5055516;28;20180;-73
2022/11/14 06:52:36;;;;;;;362.87;335.73;;;4.00;31.00;;;;;;5055250;28;20256;-73
2022/11/14 06:55:01;;;;;;;386.47;359.87;;;4.10;30.90;;;;;;5056735;28;20462;-73
2022/11/14 06:57:27;;;;;;;454.33;424.43;;;4.20;30.80;;;;;;5056408;28;20202;-73
2022/11/14 06:59:52;;;;;;;552.93;517.37;;;4.20;31.40;;;;;;5055004;28;20220;-72
2022/11/14 07:02:18;;;;;;;430.77;403.90;;;4.20;31.80;;;;;;5056000;28;20251;-73
2022/11/14 07:04:43;;;;;;;494.07;460.87;;;4.20;32.20;;;;;;5054968;28;20168;-73
2022/11/14 07:07:09;;;;;;;495.43;465.73;;;4.20;32.30;;;;;;5056062;28;20197;-72
2022/11/14 07:09:34;;;;;;;182.93;167.20;;;4.20;32.20;;;;;;5056061;28;20203;-71
2022/11/14 07:12:00;;;;;;;512.20;473.93;;;4.20;32.30;;;;;;5056339;28;20198;-73
2022/11/14 07:14:27;;;;;;;403.97;378.33;;;4.30;31.60;;;;;;5056854;28;20711;-72
2022/11/14 07:16:53;;;;;;;426.05;396.92;;;4.30;30.80;;;;;;5056948;28;20197;-73
2022/11/14 07:19:18;;;;;;;390.73;364.93;;;4.30;30.80;;;;;;5052860;28;20209;-72
2022/11/14 07:21:44;;;;;;;351.20;327.17;;;4.20;31.30;;;;;;5053809;28;20182;-72
2022/11/14 07:24:09;;;;;;;367.63;342.63;;;4.20;31.80;;;;;;5052989;28;20303;-72
2022/11/14 07:26:35;;;;;;;372.03;347.10;;;4.20;32.30;;;;;;5051553;28;20287;-72
2022/11/14 07:29:00;;;;;;;234.97;217.27;;;4.40;31.70;;;;;;5051399;28;20189;-73
2022/11/14 07:31:26;;;;;;;249.60;230.70;;;4.40;31.90;;;;;;5052080;28;20655;-72
2022/11/14 07:33:52;;;;;;;327.40;303.43;;;4.50;31.60;;;;;;5028937;28;20657;-71
2022/11/14 07:36:17;;;;;;;304.77;283.23;;;4.50;32.50;;;;;;5038393;28;20291;-72
2022/11/14 07:38:43;;;;;;;219.30;202.93;;;4.50;32.80;;;;;;5046820;28;20204;-72
2022/11/14 07:41:14;;;;;;;368.10;344.37;;;4.50;34.40;;;;;;5038087;28;20268;-72
2022/11/14 07:43:40;;;;;;;298.40;278.20;;;4.60;36.30;;;;;;5032519;28;20236;-71
2022/11/14 07:46:09;;;;;;;296.63;277.00;;;4.80;37.90;;;;;;5031023;28;20881;-71
2022/11/14 07:48:34;;;;;;;297.83;277.00;;;4.90;37.40;;;;;;5032170;28;20512;-71
2022/11/14 07:51:11;;;;;;;233.83;215.67;;;4.90;36.20;;;;;;5031121;28;20442;-72
2022/11/14 07:53:37;;;;;;;244.40;226.77;;;5.00;36.70;;;;;;5034187;28;20694;-72
2022/11/14 07:56:05;;;;;;;412.67;388.20;;;5.20;41.80;;;;;;5052137;28;20476;-72
2022/11/14 07:58:33;;;;;;;508.57;477.87;;;5.70;47.10;;;;;;5052072;28;20567;-72
2022/11/14 08:01:00;;;;;;;408.77;384.17;;;6.20;49.10;;;;;;5050837;28;20417;-72
2022/11/14 08:03:26;;;;;;;340.53;319.63;;;6.70;49.60;;;;;;5052130;28;20438;-72
2022/11/14 08:06:06;;;;;;;385.03;360.40;;;7.00;49.80;;;;;;5052112;28;20799;-72
2022/11/14 08:08:32;;;;;;;291.40;273.10;;;7.40;49.40;;;;;;5051914;28;20456;-72
2022/11/14 08:10:59;;;;;;;452.07;423.70;;;7.70;47.90;;;;;;5051999;28;20914;-73
2022/11/14 08:13:25;;;;;;;361.90;340.83;;;7.90;46.20;;;;;;5051793;28;20423;-72
2022/11/14 08:15:51;;;;;;;472.57;442.70;;;8.00;45.20;;;;;;5050687;28;20449;-72
2022/11/14 08:18:17;;;;;;;306.30;286.20;;;8.10;43.70;;;;;;5051836;28;20474;-72
2022/11/14 08:20:43;;;;;;;218.70;202.87;;;8.20;41.70;;;;;;5051725;28;20261;-72
2022/11/14 08:23:09;;;;;;;342.20;317.73;;;8.30;40.80;;;;;;5051846;28;20177;-72
2022/11/14 08:25:35;;;;;;;536.70;500.47;;;8.30;40.90;;;;;;5051723;28;20426;-71
2022/11/14 08:28:00;;;;;;;382.83;358.20;;;8.40;40.90;;;;;;5050302;28;20432;-69
2022/11/14 08:30:26;;;;;;;302.97;281.23;;;8.50;40.10;;;;;;5051805;28;20177;-77
2022/11/14 08:32:52;;;;;;;181.00;167.77;;;8.60;40.20;;;;;;5052736;28;20186;-73
2022/11/14 08:35:17;;;;;;;524.53;489.57;;;8.60;39.80;;;;;;5041969;28;20754;-71
2022/11/14 08:37:43;;;;;;;424.20;396.70;;;8.70;39.70;;;;;;5045339;28;20212;-70
2022/11/14 08:40:09;;;;;;;414.53;387.37;;;8.70;38.50;;;;;;5046920;28;20206;-72
2022/11/14 08:42:35;;;;;;;340.13;316.50;;;8.70;37.90;;;;;;5033034;28;20255;-71
2022/11/14 08:45:00;;;;;;;301.00;280.27;;;8.70;38.00;;;;;;5033628;28;20449;-71
2022/11/14 08:47:26;;;;;;;305.43;284.07;;;8.80;37.70;;;;;;5034007;28;20198;-71
2022/11/14 08:49:51;;;;;;;510.17;474.70;;;8.80;38.40;;;;;;5033847;28;20665;-72
2022/11/14 08:52:17;;;;;;;637.73;589.80;;;8.80;38.30;;;;;;5033486;28;20179;-71
2022/11/14 08:54:42;;;;;;;445.47;415.83;;;8.80;38.30;;;;;;5033631;28;20187;-72
2022/11/14 08:57:08;;;;;;;462.83;428.87;;;8.80;37.80;;;;;;5033662;28;20623;-71
2022/11/14 08:59:34;;;;;;;340.73;317.07;;;8.70;36.50;;;;;;5033798;28;20568;-71
2022/11/14 09:01:59;;;;;;;390.07;364.63;;;8.80;36.10;;;;;;5033520;28;20201;-72
2022/11/14 09:04:25;;;;;;;524.57;482.77;;;8.80;35.60;;;;;;5033705;28;20339;-71
2022/11/14 09:06:51;;;;;;;404.33;378.47;;;8.90;34.00;;;;;;5034009;28;20208;-71
2022/11/14 09:09:16;;;;;;;487.50;457.20;;;9.00;34.10;;;;;;5033734;28;20175;-71
2022/11/14 09:11:42;;;;;;;254.63;236.27;;;9.00;34.20;;;;;;5033305;28;20421;-69
2022/11/14 09:14:08;;;;;;;404.13;377.17;;;9.10;33.10;;;;;;5033152;28;20186;-71
2022/11/14 09:16:33;;;;;;;390.73;364.73;;;9.10;33.20;;;;;;5033919;28;20202;-71
2022/11/14 09:18:59;;;;;;;526.60;488.83;;;9.10;33.50;;;;;;5033708;28;20515;-71
2022/11/14 09:21:25;;;;;;;657.83;597.77;;;9.20;32.50;;;;;;5033649;28;20182;-71
2022/11/14 09:23:51;;;;;;;343.93;319.03;;;9.20;32.00;;;;;;5033411;28;20424;-71
2022/11/14 09:26:19;;;;;;;675.73;625.33;;;9.30;31.30;;;;;;5033563;28;20852;-71
2022/11/14 09:28:45;;;;;;;190.03;174.37;;;9.40;30.90;;;;;;5033636;28;20585;-72
2022/11/14 09:31:12;;;;;;;718.80;660.50;;;9.40;30.30;;;;;;5033965;28;20410;-70
2022/11/14 09:33:38;;;;;;;504.40;468.23;;;9.40;30.20;;;;;;5033269;28;20179;-72
2022/11/14 09:36:06;;;;;;;322.33;299.17;;;9.50;30.30;;;;;;5033516;28;20520;-71
2022/11/14 09:38:32;;;;;;;462.87;428.33;;;9.50;29.80;;;;;;5033612;28;20877;-71
2022/11/14 09:41:16;;;;;;;383.27;353.77;;;9.60;28.60;;;;;;5033173;28;20420;-72
2022/11/14 09:43:57;;;;;;;399.60;370.90;;;9.70;28.30;;;;;;5033246;28;20844;-71
2022/11/14 09:46:30;;;;;;;913.87;833.40;;;9.80;27.00;;;;;;5036226;28;20433;-71
2022/11/14 09:48:56;;;;;;;254.37;235.57;;;10.00;25.60;;;;;;5036697;28;20425;-72
2022/11/14 09:51:32;;;;;;;508.20;470.70;;;10.00;26.20;;;;;;5036789;28;20463;-71
2022/11/14 09:54:09;;;;;;;890.03;806.43;;;10.10;24.80;;;;;;5036816;28;20179;-71
2022/11/14 09:56:34;;;;;;;552.77;513.70;;;10.20;24.50;;;;;;5036580;28;20433;-72
2022/11/14 09:59:00;;;;;;;540.43;500.60;;;10.40;24.80;;;;;;5036954;28;20458;-72
2022/11/14 10:01:29;;;;;;;508.93;470.33;;;10.40;23.90;;;;;;5035230;28;20179;-72
2022/11/14 10:04:10;;;;;;;337.83;314.03;;;10.50;24.40;;;;;;5040289;28;20179;-70
2022/11/14 10:07:01;;;;;;;412.33;382.30;;;10.50;23.70;;;;;;5051524;28;20983;-71
2022/11/14 10:09:37;;;;;;;536.73;499.10;;;10.60;23.80;;;;;;5050852;28;20416;-71
2022/11/14 10:12:32;;;;;;;462.20;430.60;;;10.50;23.60;;;;;;5045374;28;20705;-71
2022/11/14 10:15:14;;;;;;;727.10;665.13;;;10.40;24.10;;;;;;5036451;28;20464;-70
2022/11/14 10:17:48;;;;;;;602.40;558.87;;;10.30;24.20;;;;;;5052538;28;20944;-71
2022/11/14 10:20:30;;;;;;;388.07;360.83;;;10.30;24.90;;;;;;5044407;28;20495;-70
2022/11/14 10:23:14;;;;;;;637.07;584.77;;;10.30;24.60;;;;;;5045430;28;20912;-70
2022/11/14 10:26:09;;;;;;;655.93;605.27;;;10.30;24.50;;;;;;5042334;28;20456;-72
2022/11/14 10:28:47;;;;;;;477.10;444.47;;;10.30;24.60;;;;;;5030662;28;20472;-70
2022/11/14 10:31:22;;;;;;;499.30;465.53;;;10.40;24.40;;;;;;5050590;28;20416;-71
2022/11/14 10:34:09;;;;;;;632.03;581.03;;;10.40;24.10;;;;;;5041378;28;20441;-71
2022/11/14 10:36:48;;;;;;;397.50;371.50;;;10.40;23.50;;;;;;5032430;28;20441;-70
2022/11/14 10:39:42;;;;;;;588.77;544.80;;;10.50;23.60;;;;;;5032600;28;20500;-69
2022/11/14 10:42:19;;;;;;;737.93;668.67;;;10.50;22.90;;;;;;5032450;28;20967;-71
2022/11/14 10:45:16;;;;;;;569.40;528.83;;;10.60;23.00;;;;;;5031330;28;20411;-74
2022/11/14 10:47:51;;;;;;;576.20;532.67;;;10.70;23.10;;;;;;5030759;28;20437;-70
2022/11/14 10:50:31;;;;;;;464.90;431.33;;;10.80;22.40;;;;;;5030615;28;20440;-70
2022/11/14 10:52:59;;;;;;;613.13;564.83;;;11.00;21.90;;;;;;5029138;28;20430;-69
2022/11/14 10:55:25;;;;;;;479.60;447.90;;;11.10;21.00;;;;;;5030336;28;20434;-72
2022/11/14 10:57:51;;;;;;;514.90;476.67;;;11.10;21.20;;;;;;5030252;28;20453;-70
2022/11/14 11:00:21;;;;;;;420.03;390.33;;;11.20;21.30;;;;;;5030458;28;20898;-71
2022/11/14 11:02:47;;;;;;;438.90;408.37;;;11.20;21.20;;;;;;5030609;28;20184;-70
2022/11/14 11:05:18;;;;;;;471.33;436.63;;;11.30;20.90;;;;;;5032258;28;20423;-71
2022/11/14 11:13:31;;;;;;;582.53;541.87;;;11.10;21.90;;;;;;5035796;28;20802;-70
2022/11/14 11:15:59;;;;;;;579.90;539.30;;;11.00;22.20;;;;;;5054025;28;20958;-72
2022/11/14 11:18:27;;;;;;;409.73;379.00;;;11.00;22.10;;;;;;5054867;28;20551;-71
2022/11/14 11:21:11;;;;;;;559.60;520.70;;;11.00;22.10;;;;;;5054978;28;20413;-71
2022/11/14 11:23:47;;;;;;;538.83;499.90;;;10.90;21.60;;;;;;5054954;28;20409;-71
2022/11/14 11:26:31;;;;;;;413.03;382.93;;;10.90;22.10;;;;;;5079865;22;20565;-68
2022/11/14 11:29:13;;;;;;;396.00;367.00;;;10.80;21.90;;;;;;5074378;28;20468;-72
2022/11/14 11:31:49;;;;;;;630.07;582.17;;;10.80;22.00;;;;;;5074363;28;20408;-69
2022/11/14 11:34:26;;;;;;;449.80;419.10;;;10.80;22.20;;;;;;5072140;28;20469;-69
2022/11/14 11:36:57;;;;;;;306.67;283.10;;;10.70;22.30;;;;;;5062860;28;20846;-69
2022/11/14 11:39:34;;;;;;;410.33;381.43;;;10.80;22.80;;;;;;5063304;28;20952;-69
2022/11/14 11:42:05;;;;;;;432.83;402.87;;;10.80;22.60;;;;;;5067586;28;20451;-70
2022/11/14 11:44:38;;;;;;;591.30;549.27;;;10.80;22.40;;;;;;5067834;28;20796;-70
2022/11/14 11:47:11;;;;;;;326.07;301.47;;;10.90;22.20;;;;;;5049879;28;20530;-72
2022/11/14 11:49:42;;;;;;;460.17;426.37;;;10.90;22.50;;;;;;5068337;28;20420;-70
2022/11/14 11:52:32;;;;;;;580.97;535.77;;;11.00;21.70;;;;;;5050265;28;20850;-70
2022/11/14 11:55:16;;;;;;;563.67;521.57;;;11.00;21.70;;;;;;5067756;28;20493;-70
2022/11/14 11:57:49;;;;;;;433.27;401.57;;;11.10;21.60;;;;;;5067977;28;20913;-71
2022/11/14 12:00:20;;;;;;;630.13;586.30;;;11.00;21.60;;;;;;5067606;28;20593;-69
2022/11/14 12:02:48;;;;;;;236.90;217.27;;;11.00;22.40;;;;;;5053100;28;20484;-69
2022/11/14 12:05:17;;;;;;;449.60;412.73;;;11.00;22.20;;;;;;5071966;28;20414;-69
2022/11/14 12:07:55;;;;;;;359.13;332.10;;;11.00;21.90;;;;;;5071631;28;20439;-70
2022/11/14 12:10:28;;;;;;;404.27;375.63;;;11.00;22.10;;;;;;5053155;28;20432;-70
2022/11/14 12:13:00;;;;;;;446.33;414.30;;;11.10;22.10;;;;;;5071760;28;20922;-71
2022/11/14 12:15:34;;;;;;;376.60;348.90;;;11.10;22.00;;;;;;5068892;28;20465;-71
2022/11/14 12:18:37;;;;;;;633.03;586.90;;;11.40;21.50;;;;;;5073799;28;20800;-72
2022/11/14 12:21:50;;;;;;;600.37;555.53;;;11.80;20.30;;;;;;5009637;28;21085;-70
2022/11/14 12:24:35;;;;;;;521.07;483.37;;;12.30;18.60;;;;;;5031668;28;20834;-70
2022/11/14 12:27:11;;;;;;;395.17;367.97;;;12.70;17.70;;;;;;5068533;28;20525;-70
2022/11/14 12:30:04;;;;;;;404.33;376.57;;;13.00;16.90;;;;;;5068351;28;20416;-69